Buoy 51627

sailwx.info

Track history (hours):
 
Tides and Currents Weather Stations Pressure Air Temp Water Temp Dewpoint Dewpoint Depression Visibility Wind Speed Wind Dir Waves Ship Positions

Drifting buoy 51627

Last reported at 2016-Nov-01 13:00 UTC. Time now 2016-Dec-05 16:39 UTC.
Position N 16°08' E 124°08'.
Warning: this ship's position is 34 days out of date.

Water temperature 28.8 ° C

Date/timePositionNaut miles runAvg speedWind from/ knotsBaromVisibWave heightAir tempDewpointWater temp
2016-Nov-01 13:00N 16°08' E 124°08'0 0.0 28.8
2016-Nov-01 12:00N 16°08' E 124°08'2 1.2 28.9
2016-Nov-01 10:00N 16°10' E 124°07'1 0.6 28.9
2016-Nov-01 08:00N 16°11' E 124°06'0 0.0 28.9
2016-Nov-01 07:00N 16°11' E 124°06'4 3.5 28.9
2016-Nov-01 06:00N 16°14' E 124°04'0 0.0 28.9
2016-Nov-01 05:00N 16°14' E 124°04'0 0.0 28.9
2016-Nov-01 02:00N 16°14' E 124°04'3 1.2 28.9
2016-Oct-31 23:00N 16°18' E 124°03'0 0.0 28.8
2016-Oct-31 22:00N 16°18' E 124°03'0 0.5 28.8
2016-Oct-31 21:00N 16°18' E 124°04'2 1.8 28.8
2016-Oct-31 20:00N 16°19' E 124°03'1 0.5 28.8
2016-Oct-31 19:00N 16°19' E 124°03'1 0.9 28.8
2016-Oct-31 18:00N 16°20' E 124°03'0 0.0 28.8
2016-Oct-31 17:00N 16°20' E 124°03'1 0.3 28.8
2016-Oct-31 14:00N 16°20' E 124°02'2 1.8 28.8
2016-Oct-31 13:00N 16°22' E 124°03'1 0.7 28.8
2016-Oct-31 12:00N 16°23' E 124°03'3 1.6 28.8
2016-Oct-31 10:00N 16°26' E 124°03'0 0.1 28.9
2016-Oct-31 09:00N 16°26' E 124°03'0 0.0 28.9
2016-Oct-31 08:00N 16°26' E 124°03'2 1.0 28.9
2016-Oct-31 06:00N 16°28' E 124°02'4 0.9 28.9
2016-Oct-31 02:00N 16°31' E 124°00'1 0.5 28.8
2016-Oct-31 00:00N 16°31' E 123°59'0 0.0 28.7
2016-Oct-30 23:00N 16°31' E 123°59'1 1.1 28.7
2016-Oct-30 22:00N 16°32' E 123°58'1 0.8 28.7
2016-Oct-30 21:00N 16°32' E 123°58'0 0.0 28.7
2016-Oct-30 20:00N 16°32' E 123°58'1 0.8 28.7
2016-Oct-30 19:00N 16°32' E 123°57'1 0.5 28.7
2016-Oct-30 17:00N 16°32' E 123°56'1 0.2 28.7
2016-Oct-30 12:00N 16°32' E 123°57'0 0.0 28.7
2016-Oct-30 11:00N 16°32' E 123°57'1 1.3 28.7
2016-Oct-30 10:00N 16°33' E 123°57'0 0.2 28.7
2016-Oct-30 09:00N 16°33' E 123°57'0 0.0 28.8
2016-Oct-30 08:00N 16°33' E 123°57'2 1.1 28.8
2016-Oct-30 06:00N 16°35' E 123°57'0 0.0 28.8
2016-Oct-30 05:00N 16°35' E 123°57'0 0.0 28.8
2016-Oct-30 04:00N 16°35' E 123°57'3 0.6 28.8
2016-Oct-29 23:00N 16°37' E 123°55'0 0.3 -0.0
2016-Oct-29 22:00N 16°37' E 123°55'1 0.6 28.6
2016-Oct-29 20:00N 16°38' E 123°53'0 0.0 28.7
2016-Oct-29 19:00N 16°38' E 123°53'1 0.9 28.7
2016-Oct-29 18:00N 16°38' E 123°53'1 0.9 28.7
2016-Oct-29 17:00N 16°38' E 123°52'2 0.8 28.7
2016-Oct-29 14:00N 16°38' E 123°50'0 0.0 28.7
2016-Oct-29 13:00N 16°38' E 123°50'1 1.0 28.7
2016-Oct-29 12:00N 16°37' E 123°49'0 0.0 28.7
2016-Oct-29 11:00N 16°37' E 123°49'0 0.3 28.7
2016-Oct-29 10:00N 16°37' E 123°50'0 0.1 28.7
2016-Oct-29 09:00N 16°37' E 123°50'1 0.4 28.8
2016-Oct-29 07:00N 16°37' E 123°50'1 0.6 28.8
2016-Oct-29 05:00N 16°38' E 123°50'2 0.6 28.8
2016-Oct-29 02:00N 16°39' E 123°49'0 0.4 28.6
2016-Oct-29 01:00N 16°38' E 123°49'1 0.9 28.6
2016-Oct-29 00:00N 16°39' E 123°50'1 0.6 28.6
2016-Oct-28 22:00N 16°40' E 123°49'0 0.1 28.5
2016-Oct-28 21:00N 16°40' E 123°49'1 0.7 28.5
2016-Oct-28 20:00N 16°41' E 123°49'1 1.2 28.5
2016-Oct-28 19:00N 16°42' E 123°49'0 0.2 28.5
2016-Oct-28 18:00N 16°42' E 123°49'0 0.0 28.5
2016-Oct-28 17:00N 16°42' E 123°49'4 1.0 28.5
2016-Oct-28 13:00N 16°45' E 123°47'0 0.2 28.6
2016-Oct-28 12:00N 16°45' E 123°47'2 1.5 28.6
2016-Oct-28 11:00N 16°46' E 123°46'0 0.1 28.6
2016-Oct-28 10:00N 16°46' E 123°46'0 0.2 28.6
2016-Oct-28 09:00N 16°46' E 123°46'0 0.0 28.6
2016-Oct-28 08:00N 16°46' E 123°46'1 1.2 28.7
2016-Oct-28 07:00N 16°48' E 123°46'0 0.0 28.7
2016-Oct-28 06:00N 16°48' E 123°46'0 0.0 28.7
2016-Oct-28 05:00N 16°48' E 123°46'3 0.9 28.7
2016-Oct-28 02:00N 16°50' E 123°46'1 0.5 28.5
2016-Oct-28 01:00N 16°50' E 123°45'2 1.0 28.5
2016-Oct-27 23:00N 16°52' E 123°45'0 0.0 28.4
2016-Oct-27 22:00N 16°52' E 123°45'0 0.5 28.4
2016-Oct-27 21:00N 16°53' E 123°45'1 0.2 28.4
2016-Oct-27 18:00N 16°53' E 123°45'1 0.3 28.4
2016-Oct-27 14:00N 16°54' E 123°45'0 0.2 28.5
2016-Oct-27 12:00N 16°54' E 123°46'0 0.4 28.5
2016-Oct-27 11:00N 16°54' E 123°45'1 1.4 28.6
2016-Oct-27 10:00N 16°54' E 123°47'2 0.9 28.6
2016-Oct-27 08:00N 16°54' E 123°49'5 1.7 28.7
2016-Oct-27 05:00N 16°56' E 123°54'1 0.1 28.7
2016-Oct-27 00:00N 16°56' E 123°54'1 0.7 28.4
2016-Oct-26 22:00N 16°57' E 123°55'1 0.7 28.4
2016-Oct-26 21:00N 16°57' E 123°56'2 2.0 28.4
2016-Oct-26 20:00N 16°57' E 123°58'0 0.0 28.4
2016-Oct-26 18:00N 16°57' E 123°58'2 0.4 28.4
2016-Oct-26 14:00N 16°59' E 123°59'1 1.4 28.5
2016-Oct-26 13:00N 16°59' E 124°00'0 0.0 28.5
2016-Oct-26 12:00N 16°59' E 124°00'1 0.5 28.5
2016-Oct-26 09:00N 17°01' E 124°01'2 0.5 28.6
2016-Oct-26 05:00N 16°59' E 124°02'4 1.2 28.7
2016-Oct-26 02:00N 16°57' E 124°05'0 0.0 28.5
2016-Oct-26 01:00N 16°57' E 124°05'0 0.1 28.4
2016-Oct-26 00:00N 16°57' E 124°05'1 1.1 28.4
2016-Oct-25 23:00N 16°57' E 124°06'0 0.4 28.3
2016-Oct-25 22:00N 16°57' E 124°06'2 1.2 28.3
2016-Oct-25 20:00N 16°54' E 124°07'5 0.8 28.4
2016-Oct-25 13:00N 16°50' E 124°10'1 0.7 28.5
2016-Oct-25 12:00N 16°50' E 124°11'2 1.0 28.5
2016-Oct-25 10:00N 16°49' E 124°13'2 2.4 28.5
2016-Oct-25 09:00N 16°49' E 124°16'3 1.1 28.6
2016-Oct-25 06:00N 16°50' E 124°19'0 0.0 28.7
2016-Oct-25 05:00N 16°50' E 124°19'5 1.3 28.7
2016-Oct-25 01:00N 16°56' E 124°20'2 1.7 28.4
2016-Oct-25 00:00N 16°57' E 124°18'1 0.3 28.4
2016-Oct-24 21:00N 16°57' E 124°17'1 1.0 28.4
2016-Oct-24 20:00N 16°56' E 124°17'0 0.2 28.4
2016-Oct-24 18:00N 16°56' E 124°16'3 0.8 28.4
2016-Oct-24 14:00N 16°53' E 124°16'0 0.5 28.4
2016-Oct-24 13:00N 16°53' E 124°15'0 0.5 28.5
2016-Oct-24 12:00N 16°52' E 124°15'2 0.8 28.5
2016-Oct-24 10:00N 16°51' E 124°15'1 0.8 28.6
2016-Oct-24 09:00N 16°50' E 124°16'1 1.1 28.7
2016-Oct-24 08:00N 16°49' E 124°17'1 0.7 28.8
2016-Oct-24 06:00N 16°48' E 124°18'2 0.4 28.8
2016-Oct-24 02:00N 16°47' E 124°18'2 0.7 28.7
2016-Oct-23 23:00N 16°45' E 124°19'1 0.3 28.5
2016-Oct-23 21:00N 16°44' E 124°20'0 0.0 28.5
2016-Oct-23 20:00N 16°44' E 124°20'4 2.0 28.5
2016-Oct-23 18:00N 16°46' E 124°24'1 0.2 28.6
2016-Oct-23 13:00N 16°47' E 124°24'1 0.9 28.6
2016-Oct-23 12:00N 16°48' E 124°24'2 1.6 28.7
2016-Oct-23 11:00N 16°49' E 124°23'1 1.3 28.8
2016-Oct-23 10:00N 16°50' E 124°22'0 0.2 28.8
2016-Oct-23 09:00N 16°50' E 124°22'0 0.1 28.9
2016-Oct-23 08:00N 16°50' E 124°22'2 1.1 29.0
2016-Oct-23 06:00N 16°51' E 124°20'3 0.7 29.1
2016-Oct-23 02:00N 16°50' E 124°17'1 0.8 28.7
2016-Oct-23 01:00N 16°50' E 124°16'1 1.3 28.5
2016-Oct-23 00:00N 16°49' E 124°15'0 0.0 28.5
2016-Oct-22 23:00N 16°49' E 124°15'2 0.9 28.4
2016-Oct-22 21:00N 16°49' E 124°13'2 1.1 28.4
2016-Oct-22 19:00N 16°48' E 124°11'2 2.3 28.5
2016-Oct-22 18:00N 16°45' E 124°10'3 3.1 28.5
2016-Oct-22 17:00N 16°42' E 124°10'0 0.0 28.5
2016-Oct-22 14:00N 16°42' E 124°10'0 0.5 28.6
2016-Oct-22 13:00N 16°42' E 124°09'   28.7
Track history (hours):
 
Tides and Currents Weather Stations Pressure Air Temp Water Temp Dewpoint Dewpoint Depression Visibility Wind Speed Wind Dir Waves Ship Positions

Drifting buoy 51627

Last reported at 2016-Nov-01 13:00 UTC. Time now 2016-Dec-05 16:39 UTC.
Position N 16°08' E 124°08'.
Warning: this ship's position is 34 days out of date.

Water temperature 28.8 ° C

Date/timePositionNaut miles runAvg speedWind from/ knotsBaromVisibWave heightAir tempDewpointWater temp
2016-Nov-01 13:00N 16°08' E 124°08'0 0.0 28.8
2016-Nov-01 12:00N 16°08' E 124°08'2 1.2 28.9
2016-Nov-01 10:00N 16°10' E 124°07'1 0.6 28.9
2016-Nov-01 08:00N 16°11' E 124°06'0 0.0 28.9
2016-Nov-01 07:00N 16°11' E 124°06'4 3.5 28.9
2016-Nov-01 06:00N 16°14' E 124°04'0 0.0 28.9
2016-Nov-01 05:00N 16°14' E 124°04'0 0.0 28.9
2016-Nov-01 02:00N 16°14' E 124°04'3 1.2 28.9
2016-Oct-31 23:00N 16°18' E 124°03'0 0.0 28.8
2016-Oct-31 22:00N 16°18' E 124°03'0 0.5 28.8
2016-Oct-31 21:00N 16°18' E 124°04'2 1.8 28.8
2016-Oct-31 20:00N 16°19' E 124°03'1 0.5 28.8
2016-Oct-31 19:00N 16°19' E 124°03'1 0.9 28.8
2016-Oct-31 18:00N 16°20' E 124°03'0 0.0 28.8
2016-Oct-31 17:00N 16°20' E 124°03'1 0.3 28.8
2016-Oct-31 14:00N 16°20' E 124°02'2 1.8 28.8
2016-Oct-31 13:00N 16°22' E 124°03'1 0.7 28.8
2016-Oct-31 12:00N 16°23' E 124°03'3 1.6 28.8
2016-Oct-31 10:00N 16°26' E 124°03'0 0.1 28.9
2016-Oct-31 09:00N 16°26' E 124°03'0 0.0 28.9
2016-Oct-31 08:00N 16°26' E 124°03'2 1.0 28.9
2016-Oct-31 06:00N 16°28' E 124°02'4 0.9 28.9
2016-Oct-31 02:00N 16°31' E 124°00'1 0.5 28.8
2016-Oct-31 00:00N 16°31' E 123°59'0 0.0 28.7
2016-Oct-30 23:00N 16°31' E 123°59'1 1.1 28.7
2016-Oct-30 22:00N 16°32' E 123°58'1 0.8 28.7
2016-Oct-30 21:00N 16°32' E 123°58'0 0.0 28.7
2016-Oct-30 20:00N 16°32' E 123°58'1 0.8 28.7
2016-Oct-30 19:00N 16°32' E 123°57'1 0.5 28.7
2016-Oct-30 17:00N 16°32' E 123°56'1 0.2 28.7
2016-Oct-30 12:00N 16°32' E 123°57'0 0.0 28.7
2016-Oct-30 11:00N 16°32' E 123°57'1 1.3 28.7
2016-Oct-30 10:00N 16°33' E 123°57'0 0.2 28.7
2016-Oct-30 09:00N 16°33' E 123°57'0 0.0 28.8
2016-Oct-30 08:00N 16°33' E 123°57'2 1.1 28.8
2016-Oct-30 06:00N 16°35' E 123°57'0 0.0 28.8
2016-Oct-30 05:00N 16°35' E 123°57'0 0.0 28.8
2016-Oct-30 04:00N 16°35' E 123°57'3 0.6 28.8
2016-Oct-29 23:00N 16°37' E 123°55'0 0.3 -0.0
2016-Oct-29 22:00N 16°37' E 123°55'1 0.6 28.6
2016-Oct-29 20:00N 16°38' E 123°53'0 0.0 28.7
2016-Oct-29 19:00N 16°38' E 123°53'1 0.9 28.7
2016-Oct-29 18:00N 16°38' E 123°53'1 0.9 28.7
2016-Oct-29 17:00N 16°38' E 123°52'2 0.8 28.7
2016-Oct-29 14:00N 16°38' E 123°50'0 0.0 28.7
2016-Oct-29 13:00N 16°38' E 123°50'1 1.0 28.7
2016-Oct-29 12:00N 16°37' E 123°49'0 0.0 28.7
2016-Oct-29 11:00N 16°37' E 123°49'0 0.3 28.7
2016-Oct-29 10:00N 16°37' E 123°50'0 0.1 28.7
2016-Oct-29 09:00N 16°37' E 123°50'1 0.4 28.8
2016-Oct-29 07:00N 16°37' E 123°50'1 0.6 28.8
2016-Oct-29 05:00N 16°38' E 123°50'2 0.6 28.8
2016-Oct-29 02:00N 16°39' E 123°49'0 0.4 28.6
2016-Oct-29 01:00N 16°38' E 123°49'1 0.9 28.6
2016-Oct-29 00:00N 16°39' E 123°50'1 0.6 28.6
2016-Oct-28 22:00N 16°40' E 123°49'0 0.1 28.5
2016-Oct-28 21:00N 16°40' E 123°49'1 0.7 28.5
2016-Oct-28 20:00N 16°41' E 123°49'1 1.2 28.5
2016-Oct-28 19:00N 16°42' E 123°49'0 0.2 28.5
2016-Oct-28 18:00N 16°42' E 123°49'0 0.0 28.5
2016-Oct-28 17:00N 16°42' E 123°49'4 1.0 28.5
2016-Oct-28 13:00N 16°45' E 123°47'0 0.2 28.6
2016-Oct-28 12:00N 16°45' E 123°47'2 1.5 28.6
2016-Oct-28 11:00N 16°46' E 123°46'0 0.1 28.6
2016-Oct-28 10:00N 16°46' E 123°46'0 0.2 28.6
2016-Oct-28 09:00N 16°46' E 123°46'0 0.0 28.6
2016-Oct-28 08:00N 16°46' E 123°46'1 1.2 28.7
2016-Oct-28 07:00N 16°48' E 123°46'0 0.0 28.7
2016-Oct-28 06:00N 16°48' E 123°46'0 0.0 28.7
2016-Oct-28 05:00N 16°48' E 123°46'3 0.9 28.7
2016-Oct-28 02:00N 16°50' E 123°46'1 0.5 28.5
2016-Oct-28 01:00N 16°50' E 123°45'2 1.0 28.5
2016-Oct-27 23:00N 16°52' E 123°45'0 0.0 28.4
2016-Oct-27 22:00N 16°52' E 123°45'0 0.5 28.4
2016-Oct-27 21:00N 16°53' E 123°45'1 0.2 28.4
2016-Oct-27 18:00N 16°53' E 123°45'1 0.3 28.4
2016-Oct-27 14:00N 16°54' E 123°45'0 0.2 28.5
2016-Oct-27 12:00N 16°54' E 123°46'0 0.4 28.5
2016-Oct-27 11:00N 16°54' E 123°45'1 1.4 28.6
2016-Oct-27 10:00N 16°54' E 123°47'2 0.9 28.6
2016-Oct-27 08:00N 16°54' E 123°49'5 1.7 28.7
2016-Oct-27 05:00N 16°56' E 123°54'1 0.1 28.7
2016-Oct-27 00:00N 16°56' E 123°54'1 0.7 28.4
2016-Oct-26 22:00N 16°57' E 123°55'1 0.7 28.4
2016-Oct-26 21:00N 16°57' E 123°56'2 2.0 28.4
2016-Oct-26 20:00N 16°57' E 123°58'0 0.0 28.4
2016-Oct-26 18:00N 16°57' E 123°58'2 0.4 28.4
2016-Oct-26 14:00N 16°59' E 123°59'1 1.4 28.5
2016-Oct-26 13:00N 16°59' E 124°00'0 0.0 28.5
2016-Oct-26 12:00N 16°59' E 124°00'1 0.5 28.5
2016-Oct-26 09:00N 17°01' E 124°01'2 0.5 28.6
2016-Oct-26 05:00N 16°59' E 124°02'4 1.2 28.7
2016-Oct-26 02:00N 16°57' E 124°05'0 0.0 28.5
2016-Oct-26 01:00N 16°57' E 124°05'0 0.1 28.4
2016-Oct-26 00:00N 16°57' E 124°05'1 1.1 28.4
2016-Oct-25 23:00N 16°57' E 124°06'0 0.4 28.3
2016-Oct-25 22:00N 16°57' E 124°06'2 1.2 28.3
2016-Oct-25 20:00N 16°54' E 124°07'5 0.8 28.4
2016-Oct-25 13:00N 16°50' E 124°10'1 0.7 28.5
2016-Oct-25 12:00N 16°50' E 124°11'2 1.0 28.5
2016-Oct-25 10:00N 16°49' E 124°13'2 2.4 28.5
2016-Oct-25 09:00N 16°49' E 124°16'3 1.1 28.6
2016-Oct-25 06:00N 16°50' E 124°19'0 0.0 28.7
2016-Oct-25 05:00N 16°50' E 124°19'5 1.3 28.7
2016-Oct-25 01:00N 16°56' E 124°20'2 1.7 28.4
2016-Oct-25 00:00N 16°57' E 124°18'1 0.3 28.4
2016-Oct-24 21:00N 16°57' E 124°17'1 1.0 28.4
2016-Oct-24 20:00N 16°56' E 124°17'0 0.2 28.4
2016-Oct-24 18:00N 16°56' E 124°16'3 0.8 28.4
2016-Oct-24 14:00N 16°53' E 124°16'0 0.5 28.4
2016-Oct-24 13:00N 16°53' E 124°15'0 0.5 28.5
2016-Oct-24 12:00N 16°52' E 124°15'2 0.8 28.5
2016-Oct-24 10:00N 16°51' E 124°15'1 0.8 28.6
2016-Oct-24 09:00N 16°50' E 124°16'1 1.1 28.7
2016-Oct-24 08:00N 16°49' E 124°17'1 0.7 28.8
2016-Oct-24 06:00N 16°48' E 124°18'2 0.4 28.8
2016-Oct-24 02:00N 16°47' E 124°18'2 0.7 28.7
2016-Oct-23 23:00N 16°45' E 124°19'1 0.3 28.5
2016-Oct-23 21:00N 16°44' E 124°20'0 0.0 28.5
2016-Oct-23 20:00N 16°44' E 124°20'4 2.0 28.5
2016-Oct-23 18:00N 16°46' E 124°24'1 0.2 28.6
2016-Oct-23 13:00N 16°47' E 124°24'1 0.9 28.6
2016-Oct-23 12:00N 16°48' E 124°24'2 1.6 28.7
2016-Oct-23 11:00N 16°49' E 124°23'1 1.3 28.8
2016-Oct-23 10:00N 16°50' E 124°22'0 0.2 28.8
2016-Oct-23 09:00N 16°50' E 124°22'0 0.1 28.9
2016-Oct-23 08:00N 16°50' E 124°22'2 1.1 29.0
2016-Oct-23 06:00N 16°51' E 124°20'3 0.7 29.1
2016-Oct-23 02:00N 16°50' E 124°17'1 0.8 28.7
2016-Oct-23 01:00N 16°50' E 124°16'1 1.3 28.5
2016-Oct-23 00:00N 16°49' E 124°15'0 0.0 28.5
2016-Oct-22 23:00N 16°49' E 124°15'2 0.9 28.4
2016-Oct-22 21:00N 16°49' E 124°13'2 1.1 28.4
2016-Oct-22 19:00N 16°48' E 124°11'2 2.3 28.5
2016-Oct-22 18:00N 16°45' E 124°10'3 3.1 28.5
2016-Oct-22 17:00N 16°42' E 124°10'0 0.0 28.5
2016-Oct-22 14:00N 16°42' E 124°10'0 0.5 28.6
2016-Oct-22 13:00N 16°42' E 124°09'   28.7

Dump ship's entire track history